createdAt,value
2024-02-09T00:01:42.696Z,46.28
2024-02-09T00:04:13.684Z,44.08
2024-02-09T00:06:41.181Z,44.72
2024-02-09T00:09:13.510Z,39.45
2024-02-09T00:11:41.135Z,53.47
2024-02-09T00:14:08.575Z,43.40
2024-02-09T00:16:36.223Z,46.45
2024-02-09T00:19:05.438Z,40.80
2024-02-09T00:21:36.748Z,39.40
2024-02-09T00:24:04.431Z,40.35
2024-02-09T00:26:31.728Z,47.40
2024-02-09T00:29:02.158Z,42.15
2024-02-09T00:31:29.477Z,38.97
2024-02-09T00:33:57.138Z,42.35
2024-02-09T00:36:24.494Z,45.65
2024-02-09T00:38:51.740Z,46.33
2024-02-09T00:41:19.161Z,44.10
2024-02-09T00:43:47.969Z,41.97
2024-02-09T00:46:16.320Z,45.28
2024-02-09T00:48:43.707Z,38.05
2024-02-09T00:51:11.037Z,44.10
2024-02-09T00:53:38.740Z,40.20
2024-02-09T00:56:08.058Z,41.65
2024-02-09T00:58:35.521Z,41.08
2024-02-09T01:01:04.588Z,40.20
2024-02-09T01:03:32.001Z,40.97
2024-02-09T01:06:01.320Z,51.53
2024-02-09T01:08:30.337Z,43.92
2024-02-09T01:10:58.048Z,40.35
2024-02-09T01:13:43.952Z,39.55
2024-02-09T01:16:30.058Z,39.85
2024-02-09T01:19:16.561Z,44.65
2024-02-09T01:22:02.789Z,45.67
2024-02-09T01:24:48.887Z,42.65
2024-02-09T01:27:34.654Z,42.30
2024-02-09T01:30:20.599Z,40.08
2024-02-09T01:33:06.531Z,43.00
2024-02-09T01:35:52.226Z,46.35
2024-02-09T01:38:37.974Z,38.88
2024-02-09T01:41:23.833Z,40.97
2024-02-09T01:44:09.964Z,45.25
2024-02-09T01:46:57.573Z,38.60
2024-02-09T01:49:43.505Z,41.13
2024-02-09T01:52:29.511Z,44.55
2024-02-09T01:55:15.945Z,41.00
2024-02-09T01:58:01.747Z,48.10
2024-02-09T02:00:48.235Z,41.67
2024-02-09T02:03:38.154Z,41.47
2024-02-09T02:06:25.182Z,40.63
2024-02-09T02:09:10.925Z,43.67
2024-02-09T02:11:56.811Z,49.70
2024-02-09T02:14:42.532Z,43.78
2024-02-09T02:17:28.492Z,42.53
2024-02-09T02:20:14.576Z,44.88
2024-02-09T02:23:23.227Z,41.55
2024-02-09T02:26:09.396Z,43.15
2024-02-09T02:28:55.270Z,42.95
2024-02-09T02:31:41.259Z,43.38
2024-02-09T02:34:27.270Z,43.10
2024-02-09T02:37:14.689Z,39.28
2024-02-09T02:40:00.927Z,42.95
2024-02-09T02:42:28.194Z,44.80
2024-02-09T02:44:58.350Z,47.25
2024-02-09T02:47:25.801Z,42.72
2024-02-09T02:50:12.245Z,41.40
2024-02-09T02:52:57.982Z,44.30
2024-02-09T02:55:43.927Z,42.42
2024-02-09T02:58:29.866Z,43.10
2024-02-09T03:01:15.921Z,39.28
2024-02-09T03:04:02.089Z,47.38
2024-02-09T03:06:34.114Z,46.60
2024-02-09T03:09:09.655Z,42.97
2024-02-09T03:11:37.023Z,43.60
2024-02-09T03:14:06.692Z,39.83
2024-02-09T03:16:34.150Z,41.65
2024-02-09T03:19:01.552Z,40.80
2024-02-09T03:21:36.327Z,48.05
2024-02-09T03:24:03.804Z,40.88
2024-02-09T03:26:31.287Z,39.97
2024-02-09T03:28:59.780Z,45.42
2024-02-09T03:31:30.282Z,41.65
2024-02-09T03:33:58.169Z,42.83
2024-02-09T03:36:25.684Z,43.90
2024-02-09T03:38:54.795Z,42.15
2024-02-09T03:41:26.893Z,44.10
2024-02-09T03:43:54.310Z,46.88
2024-02-09T03:46:21.852Z,47.85
2024-02-09T03:48:49.279Z,45.50
2024-02-09T03:51:16.637Z,39.15
2024-02-09T03:53:44.541Z,40.08
2024-02-09T03:56:11.885Z,40.42
2024-02-09T03:58:39.277Z,42.97
2024-02-09T04:01:11.895Z,39.20
2024-02-09T04:03:39.697Z,43.30
2024-02-09T04:06:07.777Z,39.20
2024-02-09T04:08:35.111Z,43.08
2024-02-09T04:11:02.564Z,44.08
2024-02-09T04:13:30.090Z,42.05
2024-02-09T04:16:01.885Z,41.58
2024-02-09T04:18:30.663Z,42.03
2024-02-09T04:20:58.662Z,44.47
2024-02-09T04:23:25.950Z,43.08
2024-02-09T04:25:53.281Z,41.17
2024-02-09T04:28:20.719Z,38.45
2024-02-09T04:30:48.657Z,38.70
2024-02-09T04:33:17.451Z,39.58
2024-02-09T04:35:45.193Z,43.83
2024-02-09T04:38:13.994Z,38.47
2024-02-09T04:40:41.509Z,40.22
2024-02-09T04:43:08.985Z,38.28
2024-02-09T04:45:36.329Z,40.67
2024-02-09T04:48:04.177Z,37.58
2024-02-09T04:50:31.658Z,42.47
2024-02-09T04:52:58.992Z,39.15
2024-02-09T04:55:26.492Z,46.28
2024-02-09T04:57:53.803Z,46.15
2024-02-09T05:00:21.384Z,36.10
2024-02-09T05:02:48.839Z,44.65
2024-02-09T05:05:16.385Z,38.97
2024-02-09T05:07:43.899Z,42.88
2024-02-09T05:10:12.887Z,40.05
2024-02-09T05:12:40.385Z,52.03
2024-02-09T05:15:08.014Z,42.55
2024-02-09T05:17:39.488Z,38.92
2024-02-09T05:20:07.714Z,42.25
2024-02-09T05:22:35.079Z,37.67
2024-02-09T05:25:04.138Z,38.50
2024-02-09T05:27:34.034Z,37.00
2024-02-09T05:30:01.566Z,38.58
2024-02-09T05:32:28.849Z,41.08
2024-02-09T05:34:58.096Z,43.58
2024-02-09T05:37:25.663Z,42.80
2024-02-09T05:39:53.484Z,41.95
2024-02-09T05:42:20.832Z,35.22
2024-02-09T05:44:48.219Z,41.65
2024-02-09T05:47:16.039Z,38.60
2024-02-09T05:49:43.872Z,47.95
2024-02-09T05:52:12.322Z,44.28
2024-02-09T05:54:39.728Z,36.33
2024-02-09T05:57:07.683Z,45.17
2024-02-09T05:59:35.023Z,43.58
2024-02-09T06:02:02.365Z,39.78
2024-02-09T06:04:31.990Z,53.53
2024-02-09T06:07:00.996Z,44.85
2024-02-09T06:09:30.476Z,40.47
2024-02-09T06:11:59.827Z,38.92
2024-02-09T06:14:27.122Z,40.03
2024-02-09T06:16:56.541Z,39.92
2024-02-09T06:19:24.836Z,50.90
2024-02-09T06:21:52.469Z,44.90
2024-02-09T06:24:20.069Z,42.30
2024-02-09T06:26:48.014Z,35.65
2024-02-09T06:29:16.032Z,37.70
2024-02-09T06:31:44.329Z,40.08
2024-02-09T06:34:12.059Z,37.65
2024-02-09T06:36:40.594Z,38.38
2024-02-09T06:39:10.115Z,38.58
2024-02-09T06:41:37.658Z,39.22
2024-02-09T06:44:05.118Z,37.40
2024-02-09T06:46:32.538Z,37.00
2024-02-09T06:49:00.869Z,37.10
2024-02-09T06:51:28.393Z,38.35
2024-02-09T06:53:58.275Z,38.97
2024-02-09T06:56:25.682Z,36.22
2024-02-09T06:58:55.969Z,37.35
2024-02-09T07:01:23.607Z,41.45
2024-02-09T07:03:54.622Z,36.85
2024-02-09T07:06:25.927Z,37.38
2024-02-09T07:08:54.581Z,36.10
2024-02-09T07:11:22.349Z,36.85
2024-02-09T07:13:49.954Z,37.25
2024-02-09T07:16:18.970Z,39.78
2024-02-09T07:18:46.268Z,39.40
2024-02-09T07:21:16.905Z,41.35
2024-02-09T07:23:51.210Z,41.15
2024-02-09T07:26:19.358Z,39.60
2024-02-09T07:28:46.774Z,38.90
2024-02-09T07:31:17.704Z,38.33
2024-02-09T07:33:45.578Z,40.72
2024-02-09T07:36:13.950Z,41.40
2024-02-09T07:38:41.561Z,40.03
2024-02-09T07:41:12.570Z,39.70
2024-02-09T07:43:40.774Z,42.15
2024-02-09T07:46:08.420Z,45.50
2024-02-09T07:48:37.076Z,40.30
2024-02-09T07:51:05.697Z,42.75
2024-02-09T07:53:33.203Z,44.17
2024-02-09T07:56:01.945Z,42.97
2024-02-09T07:58:30.149Z,41.55
2024-02-09T08:00:58.573Z,41.67
2024-02-09T08:03:26.385Z,47.15
2024-02-09T08:05:55.189Z,42.70
2024-02-09T08:08:23.038Z,38.28
2024-02-09T08:10:51.087Z,39.22
2024-02-09T08:13:18.890Z,39.38
2024-02-09T08:15:47.362Z,43.72
2024-02-09T08:18:15.158Z,44.25
2024-02-09T08:20:43.256Z,36.25
2024-02-09T08:23:10.748Z,37.72
2024-02-09T08:25:38.347Z,39.10
2024-02-09T08:28:06.079Z,36.28
2024-02-09T08:30:33.615Z,41.50
2024-02-09T08:33:01.796Z,35.35
2024-02-09T08:35:29.415Z,37.60
2024-02-09T08:37:56.978Z,36.60
2024-02-09T08:40:27.062Z,35.35
2024-02-09T08:42:55.034Z,37.33
2024-02-09T08:45:22.452Z,39.17
2024-02-09T08:47:49.806Z,36.70
2024-02-09T08:50:17.452Z,37.10
2024-02-09T08:52:45.245Z,40.10
2024-02-09T08:55:12.739Z,35.72
2024-02-09T08:57:40.452Z,36.47
2024-02-09T09:00:08.663Z,36.08
2024-02-09T09:02:36.250Z,37.50
2024-02-09T09:05:08.261Z,36.50
2024-02-09T09:07:36.327Z,36.70
2024-02-09T09:10:07.420Z,35.50
2024-02-09T09:12:37.817Z,38.47
2024-02-09T09:15:06.269Z,36.20
2024-02-09T09:17:34.430Z,36.40
2024-02-09T09:20:02.102Z,37.53
2024-02-09T09:22:29.711Z,37.33
2024-02-09T09:24:57.188Z,38.88
2024-02-09T09:27:25.241Z,38.00
2024-02-09T09:29:54.173Z,37.97
2024-02-09T09:32:23.571Z,40.45
2024-02-09T09:34:51.448Z,37.88
2024-02-09T09:37:19.666Z,40.83
2024-02-09T09:39:47.774Z,37.70
2024-02-09T09:42:17.977Z,38.50
2024-02-09T09:44:47.031Z,36.38
2024-02-09T09:47:15.091Z,39.28
2024-02-09T09:49:46.057Z,38.30
2024-02-09T09:52:22.106Z,37.47
2024-02-09T09:54:50.187Z,39.33
2024-02-09T09:57:17.656Z,37.05
2024-02-09T09:59:45.539Z,37.13
2024-02-09T10:02:13.210Z,38.63
2024-02-09T10:04:40.706Z,37.30
2024-02-09T10:07:09.530Z,38.17
2024-02-09T10:09:37.379Z,38.60
2024-02-09T10:12:07.596Z,36.63
2024-02-09T10:14:40.415Z,38.60
2024-02-09T10:17:08.097Z,40.77
2024-02-09T10:19:35.767Z,39.73
2024-02-09T10:22:10.490Z,37.90
2024-02-09T10:24:46.161Z,36.77
2024-02-09T10:27:13.609Z,37.97
2024-02-09T10:29:41.401Z,43.03
2024-02-09T10:32:08.805Z,40.80
2024-02-09T10:34:39.101Z,37.90
2024-02-09T10:37:13.693Z,39.67
2024-02-09T10:39:44.981Z,39.07
2024-02-09T10:42:16.265Z,40.73
2024-02-09T10:44:47.793Z,39.10
2024-02-09T10:47:16.776Z,39.70
2024-02-09T10:49:48.110Z,40.70
2024-02-09T10:52:18.817Z,37.13
2024-02-09T10:54:50.538Z,38.40
2024-02-09T10:57:19.557Z,39.50
2024-02-09T10:59:47.909Z,39.13
2024-02-09T11:02:16.697Z,40.00
2024-02-09T11:04:46.030Z,38.30
2024-02-09T11:07:16.612Z,36.80
2024-02-09T11:09:47.229Z,41.40
2024-02-09T11:12:14.946Z,38.93
2024-02-09T11:14:46.102Z,41.70
2024-02-09T11:17:19.892Z,39.87
2024-02-09T11:19:47.486Z,37.40
2024-02-09T11:22:15.079Z,40.50
2024-02-09T11:24:53.699Z,39.10
2024-02-09T11:27:31.817Z,36.97
2024-02-09T11:29:59.165Z,37.50
2024-02-09T11:32:26.711Z,38.03
2024-02-09T11:34:56.838Z,50.23
2024-02-09T11:37:25.137Z,38.43
2024-02-09T11:39:53.697Z,37.10
2024-02-09T11:42:33.841Z,37.20
2024-02-09T11:45:03.202Z,38.90
2024-02-09T11:47:32.810Z,36.33
2024-02-09T11:50:00.815Z,38.87
2024-02-09T11:52:29.148Z,39.77
2024-02-09T11:54:56.529Z,44.67
2024-02-09T11:57:25.222Z,43.40
2024-02-09T11:59:53.522Z,41.60
2024-02-09T12:02:21.196Z,40.23
2024-02-09T12:04:48.870Z,40.90
2024-02-09T12:07:16.498Z,49.57
2024-02-09T12:09:43.970Z,39.17
2024-02-09T12:12:11.293Z,37.03
2024-02-09T12:14:39.505Z,38.43
2024-02-09T12:17:12.486Z,39.43
2024-02-09T12:19:41.013Z,45.83
2024-02-09T12:22:08.416Z,38.47
2024-02-09T12:24:36.366Z,37.37
2024-02-09T12:27:17.051Z,38.73
2024-02-09T12:29:45.305Z,40.73
2024-02-09T12:32:14.289Z,39.27
2024-02-09T12:34:48.867Z,37.50
2024-02-09T12:37:18.663Z,39.20
2024-02-09T12:39:50.696Z,41.13
2024-02-09T12:42:19.256Z,37.27
2024-02-09T12:44:46.697Z,42.67
2024-02-09T12:47:14.076Z,40.33
2024-02-09T12:49:41.553Z,37.30
2024-02-09T12:52:09.991Z,38.47
2024-02-09T12:54:38.810Z,38.63
2024-02-09T12:57:08.203Z,38.40
2024-02-09T12:59:36.679Z,40.10
2024-02-09T13:02:08.952Z,37.10
2024-02-09T13:04:36.571Z,41.97
2024-02-09T13:07:07.375Z,39.67
2024-02-09T13:09:35.094Z,39.63
2024-02-09T13:12:03.919Z,40.10
2024-02-09T13:14:31.301Z,36.67
2024-02-09T13:16:59.069Z,39.83
2024-02-09T13:19:26.950Z,39.70
2024-02-09T13:21:56.882Z,37.87
2024-02-09T13:24:24.397Z,38.13
2024-02-09T13:26:52.035Z,38.70
2024-02-09T13:29:25.544Z,37.70
2024-02-09T13:31:55.061Z,38.30
2024-02-09T13:34:23.224Z,39.37
2024-02-09T13:36:50.882Z,38.70
2024-02-09T13:39:18.888Z,41.87
2024-02-09T13:41:47.222Z,43.70
2024-02-09T13:44:17.376Z,40.00
2024-02-09T13:46:45.348Z,36.87
2024-02-09T13:49:13.018Z,38.47
2024-02-09T13:51:40.781Z,42.80
2024-02-09T13:54:08.536Z,38.40
2024-02-09T13:56:38.680Z,43.47
2024-02-09T13:59:07.099Z,39.10
2024-02-09T14:01:37.626Z,38.73
2024-02-09T14:04:08.389Z,46.03
2024-02-09T14:06:39.273Z,42.13
2024-02-09T14:09:07.460Z,39.50
2024-02-09T14:11:35.329Z,38.90
2024-02-09T14:14:04.332Z,39.97
2024-02-09T14:16:36.645Z,36.67
2024-02-09T14:19:05.831Z,39.30
2024-02-09T14:21:34.034Z,36.57
2024-02-09T14:24:02.046Z,38.20
2024-02-09T14:26:30.080Z,37.13
2024-02-09T14:29:00.248Z,38.10
2024-02-09T14:31:29.118Z,39.27
2024-02-09T14:33:56.694Z,37.63
2024-02-09T14:36:24.207Z,37.37
2024-02-09T14:38:51.644Z,39.30
2024-02-09T14:41:20.103Z,40.27
2024-02-09T14:43:49.538Z,39.40
2024-02-09T14:46:17.230Z,38.50
2024-02-09T14:48:44.697Z,37.43
2024-02-09T14:51:12.090Z,45.10
2024-02-09T14:53:41.226Z,37.70
2024-02-09T14:56:09.572Z,38.77
2024-02-09T14:58:37.240Z,45.30
2024-02-09T15:01:05.017Z,42.13
2024-02-09T15:03:38.515Z,49.03
2024-02-09T15:06:15.659Z,49.37
2024-02-09T15:08:49.772Z,50.93
2024-02-09T15:11:24.383Z,43.90
2024-02-09T15:13:53.474Z,44.77
2024-02-09T15:16:21.010Z,43.43
2024-02-09T15:18:48.856Z,39.10
2024-02-09T15:21:18.382Z,44.33
2024-02-09T15:23:46.584Z,40.57
2024-02-09T15:26:16.134Z,44.80
2024-02-09T15:28:45.406Z,37.73
2024-02-09T15:31:13.205Z,39.30
2024-02-09T15:33:40.726Z,40.10
2024-02-09T15:36:08.757Z,44.60
2024-02-09T15:38:37.433Z,42.90
2024-02-09T15:41:05.028Z,40.30
2024-02-09T15:43:32.536Z,40.57
2024-02-09T15:46:01.074Z,39.33
2024-02-09T15:48:28.517Z,39.50
2024-02-09T15:50:55.886Z,43.90
2024-02-09T15:53:23.887Z,41.53
2024-02-09T15:55:53.981Z,41.97
2024-02-09T15:58:21.698Z,53.63
2024-02-09T16:00:49.265Z,52.90
2024-02-09T16:03:20.078Z,52.00
2024-02-09T16:05:47.691Z,50.70
2024-02-09T16:08:15.130Z,53.13
2024-02-09T16:10:45.980Z,41.30
2024-02-09T16:13:14.635Z,43.40
2024-02-09T16:15:45.456Z,44.07
2024-02-09T16:18:12.981Z,43.90
2024-02-09T16:20:40.514Z,40.80
2024-02-09T16:23:08.093Z,41.20
2024-02-09T16:25:35.786Z,46.17
2024-02-09T16:28:04.147Z,42.30
2024-02-09T16:30:31.696Z,44.40
2024-02-09T16:32:59.227Z,37.97
2024-02-09T16:35:26.750Z,38.70
2024-02-09T16:37:54.549Z,38.73
2024-02-09T16:40:23.215Z,42.85
2024-02-09T16:42:50.906Z,37.13
2024-02-09T16:45:18.640Z,40.20
2024-02-09T16:47:46.510Z,41.60
2024-02-09T16:50:14.128Z,37.70
2024-02-09T16:52:41.840Z,38.60
2024-02-09T16:55:09.489Z,38.63
2024-02-09T16:57:40.035Z,42.83
2024-02-09T17:00:10.227Z,38.80
2024-02-09T17:02:40.239Z,39.45
2024-02-09T17:05:08.346Z,42.83
2024-02-09T17:07:36.100Z,42.03
2024-02-09T17:10:05.892Z,40.33
2024-02-09T17:12:33.884Z,39.17
2024-02-09T17:15:01.310Z,40.33
2024-02-09T17:17:28.744Z,43.58
2024-02-09T17:19:56.629Z,44.65
2024-02-09T17:22:24.185Z,45.60
2024-02-09T17:24:51.636Z,40.35
2024-02-09T17:27:19.185Z,41.00
2024-02-09T17:29:46.551Z,40.28
2024-02-09T17:32:14.185Z,38.70
2024-02-09T17:34:41.644Z,41.35
2024-02-09T17:37:10.349Z,37.70
2024-02-09T17:39:38.436Z,37.33
2024-02-09T17:42:06.272Z,42.10
2024-02-09T17:44:33.726Z,39.88
2024-02-09T17:47:04.394Z,41.65
2024-02-09T17:49:34.209Z,40.65
2024-02-09T17:52:02.372Z,42.15
2024-02-09T17:54:29.870Z,44.10
2024-02-09T17:56:57.321Z,43.33
2024-02-09T17:59:25.131Z,46.42
2024-02-09T18:01:52.743Z,41.63
2024-02-09T18:04:20.397Z,38.33
2024-02-09T18:06:47.908Z,39.33
2024-02-09T18:09:15.933Z,41.65
2024-02-09T18:11:43.502Z,37.60
2024-02-09T18:14:11.015Z,40.70
2024-02-09T18:16:38.476Z,40.65
2024-02-09T18:19:09.384Z,40.88
2024-02-09T18:21:39.137Z,44.15
2024-02-09T18:24:06.787Z,40.00
2024-02-09T18:26:34.108Z,46.83
2024-02-09T18:29:01.534Z,46.22
2024-02-09T18:31:29.613Z,49.70
2024-02-09T18:33:57.394Z,50.50
2024-02-09T18:36:25.637Z,47.30
2024-02-09T18:38:55.720Z,44.85
2024-02-09T18:41:23.757Z,46.85
2024-02-09T18:43:51.339Z,43.90
2024-02-09T18:46:19.141Z,43.63
2024-02-09T18:48:46.638Z,44.10
2024-02-09T18:51:14.719Z,49.60
2024-02-09T18:53:42.314Z,51.72
2024-02-09T18:56:09.713Z,48.25
2024-02-09T18:58:37.435Z,44.13
2024-02-09T19:01:06.871Z,43.38
2024-02-09T19:03:34.826Z,45.65
2024-02-09T19:06:03.021Z,39.58
2024-02-09T19:08:32.622Z,40.60
2024-02-09T19:11:01.284Z,47.53
2024-02-09T19:13:29.040Z,45.00
2024-02-09T19:15:56.435Z,44.33
2024-02-09T19:18:24.037Z,42.63
2024-02-09T19:20:51.595Z,45.63
2024-02-09T19:23:19.060Z,41.78
2024-02-09T19:25:48.159Z,45.10
2024-02-09T19:28:16.326Z,43.50
2024-02-09T19:30:45.094Z,43.20
2024-02-09T19:33:13.976Z,46.47
2024-02-09T19:35:41.505Z,44.15
2024-02-09T19:38:08.998Z,43.75
2024-02-09T19:40:36.942Z,39.45
2024-02-09T19:43:04.598Z,39.00
2024-02-09T19:45:32.617Z,41.00
2024-02-09T19:48:01.433Z,39.65
2024-02-09T19:50:28.927Z,40.72
2024-02-09T19:52:56.405Z,42.42
2024-02-09T19:55:24.047Z,46.95
2024-02-09T19:57:51.850Z,46.63
2024-02-09T20:00:19.844Z,50.92
2024-02-09T20:02:53.047Z,52.63
2024-02-09T20:05:28.522Z,49.97
2024-02-09T20:07:56.054Z,48.10
2024-02-09T20:10:23.932Z,51.95
2024-02-09T20:12:53.361Z,50.35
2024-02-09T20:15:21.046Z,46.42
2024-02-09T20:17:49.024Z,50.10
2024-02-09T20:20:20.784Z,45.25
2024-02-09T20:22:53.561Z,46.30
2024-02-09T20:25:22.839Z,50.25
2024-02-09T20:27:51.324Z,45.97
2024-02-09T20:30:18.809Z,51.90
2024-02-09T20:32:47.142Z,47.72
2024-02-09T20:35:16.281Z,47.75
2024-02-09T20:37:43.894Z,48.00
2024-02-09T20:40:12.004Z,45.22
2024-02-09T20:42:39.493Z,50.22
2024-02-09T20:45:10.611Z,45.17
2024-02-09T20:47:42.219Z,45.95
2024-02-09T20:50:16.140Z,49.75
2024-02-09T20:52:47.324Z,44.53
2024-02-09T20:55:23.732Z,46.88
2024-02-09T20:57:51.312Z,42.55
2024-02-09T21:00:22.432Z,43.70
2024-02-09T21:02:52.441Z,43.42
2024-02-09T21:05:21.004Z,41.13
2024-02-09T21:07:49.460Z,45.72
2024-02-09T21:10:17.842Z,41.47
2024-02-09T21:12:47.158Z,41.38
2024-02-09T21:15:15.672Z,42.53
2024-02-09T21:17:44.675Z,40.80
2024-02-09T21:20:13.788Z,40.17
2024-02-09T21:22:43.606Z,42.63
2024-02-09T21:25:11.890Z,41.17
2024-02-09T21:27:39.354Z,40.38
2024-02-09T21:30:10.301Z,42.45
2024-02-09T21:32:41.575Z,42.30
2024-02-09T21:35:10.371Z,44.53
2024-02-09T21:37:38.506Z,40.40
2024-02-09T21:40:10.401Z,44.50
2024-02-09T21:42:39.026Z,45.22
2024-02-09T21:45:07.273Z,44.72
2024-02-09T21:47:35.531Z,43.40
2024-02-09T21:50:04.162Z,51.45
2024-02-09T21:52:32.069Z,48.20
2024-02-09T21:55:00.086Z,45.15
2024-02-09T21:57:29.764Z,43.80
2024-02-09T21:59:57.835Z,49.55
2024-02-09T22:02:29.147Z,59.03
2024-02-09T22:04:58.519Z,45.20
2024-02-09T22:07:28.616Z,59.15
2024-02-09T22:09:56.083Z,63.90
2024-02-09T22:12:28.042Z,62.70
2024-02-09T22:14:57.100Z,63.65
2024-02-09T22:17:36.192Z,60.95
2024-02-09T22:20:07.368Z,59.33
2024-02-09T22:22:35.132Z,55.78
2024-02-09T22:25:03.223Z,73.18
2024-02-09T22:27:34.615Z,66.35
2024-02-09T22:30:02.800Z,63.97
2024-02-09T22:32:30.259Z,56.30
2024-02-09T22:34:58.019Z,62.38
2024-02-09T22:37:27.154Z,60.97
2024-02-09T22:39:54.606Z,67.93
2024-02-09T22:42:22.404Z,63.80
2024-02-09T22:44:50.032Z,62.67
2024-02-09T22:47:20.124Z,66.50
2024-02-09T22:49:48.735Z,56.03
2024-02-09T22:52:16.666Z,678.67
2024-02-09T22:54:44.342Z,559.17
2024-02-09T22:57:15.963Z,319.13
2024-02-09T22:59:43.582Z,196.90
2024-02-09T23:02:10.984Z,131.23
2024-02-09T23:04:39.863Z,61.05
2024-02-09T23:07:07.976Z,52.88
2024-02-09T23:09:38.744Z,47.75
2024-02-09T23:12:06.329Z,47.50
2024-02-09T23:14:34.286Z,50.95
2024-02-09T23:17:01.906Z,48.85
2024-02-09T23:19:29.481Z,47.58
2024-02-09T23:21:57.681Z,45.78
2024-02-09T23:24:26.760Z,46.53
2024-02-09T23:26:55.789Z,47.33
2024-02-09T23:29:27.136Z,42.83
2024-02-09T23:31:56.888Z,49.45
2024-02-09T23:34:24.964Z,47.20
2024-02-09T23:36:53.890Z,41.22
2024-02-09T23:39:23.112Z,42.38
2024-02-09T23:41:50.711Z,38.33
2024-02-09T23:44:23.784Z,38.95
2024-02-09T23:46:51.603Z,39.70
2024-02-09T23:49:19.721Z,38.60
2024-02-09T23:51:52.323Z,39.45
2024-02-09T23:54:19.839Z,38.83
2024-02-09T23:56:50.628Z,37.97
2024-02-09T23:59:17.931Z,38.28
